createdAt,value
2019-05-21T00:01:14.302Z,12.20
2019-05-21T00:03:44.470Z,12.20
2019-05-21T00:06:14.471Z,12.20
2019-05-21T00:08:44.492Z,12.10
2019-05-21T00:11:14.575Z,12.10
2019-05-21T00:13:44.602Z,12.10
2019-05-21T00:16:14.554Z,12.00
2019-05-21T00:18:44.492Z,12.10
2019-05-21T00:21:14.580Z,12.10
2019-05-21T00:23:44.582Z,12.00
2019-05-21T00:26:14.619Z,12.10
2019-05-21T00:29:01.055Z,12.10
2019-05-21T00:32:25.201Z,12.00
2019-05-21T00:35:51.966Z,12.00
2019-05-21T00:39:16.621Z,11.90
2019-05-21T00:42:00.280Z,11.90
2019-05-21T00:44:36.745Z,12.00
2019-05-21T00:47:08.756Z,12.00
2019-05-21T00:49:38.981Z,11.90
2019-05-21T00:52:09.581Z,12.00
2019-05-21T00:54:39.914Z,12.00
2019-05-21T00:57:10.007Z,12.00
2019-05-21T00:59:40.019Z,12.00
2019-05-21T01:02:10.038Z,12.00
2019-05-21T01:04:39.972Z,12.00
2019-05-21T01:07:10.145Z,12.00
2019-05-21T01:09:40.254Z,12.00
2019-05-21T01:12:10.332Z,12.00
2019-05-21T01:14:40.358Z,12.00
2019-05-21T01:17:10.430Z,12.00
2019-05-21T01:19:40.535Z,12.00
2019-05-21T01:22:10.711Z,12.00
2019-05-21T01:24:40.820Z,12.00
2019-05-21T01:27:10.839Z,12.00
2019-05-21T01:29:40.879Z,12.00
2019-05-21T01:32:10.892Z,12.00
2019-05-21T01:34:40.913Z,12.00
2019-05-21T01:37:10.920Z,12.00
2019-05-21T01:39:41.057Z,12.00
2019-05-21T01:42:10.979Z,12.00
2019-05-21T01:44:40.971Z,12.10
2019-05-21T01:47:11.110Z,12.00
2019-05-21T01:49:41.091Z,12.00
2019-05-21T01:52:11.191Z,12.00
2019-05-21T01:54:41.274Z,12.00
2019-05-21T01:57:11.376Z,12.00
2019-05-21T01:59:41.378Z,12.00
2019-05-21T02:02:11.383Z,12.10
2019-05-21T02:04:41.374Z,12.00
2019-05-21T02:07:11.448Z,12.10
2019-05-21T02:09:59.673Z,12.00
2019-05-21T02:12:29.959Z,12.00
2019-05-21T02:14:59.983Z,12.00
2019-05-21T02:17:30.050Z,12.00
2019-05-21T02:20:00.033Z,11.90
2019-05-21T02:22:29.994Z,11.90
2019-05-21T02:24:59.935Z,11.90
2019-05-21T02:27:29.892Z,12.00
2019-05-21T02:29:59.811Z,11.90
2019-05-21T02:32:29.731Z,11.90
2019-05-21T02:34:59.768Z,11.90
2019-05-21T02:37:29.929Z,11.90
2019-05-21T02:39:59.835Z,11.80
2019-05-21T02:42:30.024Z,11.70
2019-05-21T02:45:00.083Z,11.70
2019-05-21T02:47:30.268Z,11.70
2019-05-21T02:50:00.407Z,11.70
2019-05-21T02:52:30.573Z,11.70
2019-05-21T02:55:00.495Z,11.60
2019-05-21T02:57:40.953Z,11.70
2019-05-21T03:00:26.946Z,11.60
2019-05-21T03:02:57.102Z,11.70
2019-05-21T03:05:27.280Z,11.60
2019-05-21T03:07:57.434Z,11.60
2019-05-21T03:10:28.201Z,11.70
2019-05-21T03:12:58.207Z,11.70
2019-05-21T03:15:28.194Z,11.60
2019-05-21T03:17:58.377Z,11.50
2019-05-21T03:20:28.322Z,11.50
2019-05-21T03:22:58.313Z,11.50
2019-05-21T03:25:28.318Z,11.50
2019-05-21T03:27:58.414Z,11.50
2019-05-21T03:30:28.422Z,11.40
2019-05-21T03:32:58.500Z,11.40
2019-05-21T03:35:28.550Z,11.40
2019-05-21T03:37:58.655Z,11.40
2019-05-21T03:40:28.632Z,11.40
2019-05-21T03:42:58.645Z,11.40
2019-05-21T03:45:28.799Z,11.50
2019-05-21T03:47:59.346Z,11.40
2019-05-21T03:50:29.500Z,11.40
2019-05-21T03:52:59.594Z,11.50
2019-05-21T03:55:29.494Z,11.40
2019-05-21T03:57:59.658Z,11.40
2019-05-21T04:00:29.887Z,11.40
2019-05-21T04:02:59.838Z,11.40
2019-05-21T04:05:29.873Z,11.30
2019-05-21T04:07:59.839Z,11.30
2019-05-21T04:10:29.888Z,11.30
2019-05-21T04:13:06.630Z,11.30
2019-05-21T04:16:06.286Z,11.30
2019-05-21T04:18:49.561Z,11.30
2019-05-21T04:21:19.548Z,11.30
2019-05-21T04:23:49.690Z,11.30
2019-05-21T04:26:19.771Z,11.20
2019-05-21T04:28:49.758Z,11.20
2019-05-21T04:31:19.775Z,11.20
2019-05-21T04:33:49.731Z,11.20
2019-05-21T04:36:19.745Z,11.30
2019-05-21T04:38:49.739Z,11.20
2019-05-21T04:41:19.724Z,11.30
2019-05-21T04:43:50.098Z,11.30
2019-05-21T04:46:20.141Z,11.30
2019-05-21T04:48:50.061Z,11.30
2019-05-21T04:51:20.097Z,11.20
2019-05-21T04:53:50.284Z,11.40
2019-05-21T04:56:20.357Z,11.30
2019-05-21T04:58:50.288Z,11.20
2019-05-21T05:01:20.443Z,11.20
2019-05-21T05:03:50.605Z,11.20
2019-05-21T05:06:20.558Z,11.10
2019-05-21T05:08:50.472Z,11.20
2019-05-21T05:11:20.404Z,11.20
2019-05-21T05:13:50.412Z,11.10
2019-05-21T05:16:20.497Z,11.10
2019-05-21T05:18:50.478Z,11.10
2019-05-21T05:21:20.506Z,11.10
2019-05-21T05:23:50.555Z,11.10
2019-05-21T05:26:20.669Z,11.10
2019-05-21T05:28:50.697Z,11.20
2019-05-21T05:31:20.709Z,11.20
2019-05-21T05:33:50.725Z,11.20
2019-05-21T05:36:20.715Z,11.20
2019-05-21T05:38:50.765Z,11.20
2019-05-21T05:41:20.835Z,11.10
2019-05-21T05:43:50.830Z,11.20
2019-05-21T05:46:20.952Z,11.20
2019-05-21T05:49:05.229Z,11.30
2019-05-21T05:51:35.159Z,11.20
2019-05-21T05:54:07.732Z,11.30
2019-05-21T05:56:36.995Z,11.20
2019-05-21T05:59:07.150Z,11.20
2019-05-21T06:01:37.162Z,11.30
2019-05-21T06:04:07.180Z,11.30
2019-05-21T06:06:37.199Z,11.20
2019-05-21T06:09:08.477Z,11.20
2019-05-21T06:11:38.472Z,11.20
2019-05-21T06:14:08.562Z,11.20
2019-05-21T06:16:38.576Z,11.20
2019-05-21T06:19:08.639Z,11.20
2019-05-21T06:21:38.692Z,11.20
2019-05-21T06:24:08.834Z,11.30
2019-05-21T06:26:38.773Z,11.40
2019-05-21T06:29:08.754Z,11.30
2019-05-21T06:31:38.692Z,11.50
2019-05-21T06:34:08.779Z,11.50
2019-05-21T06:36:38.803Z,11.40
2019-05-21T06:39:09.359Z,11.40
2019-05-21T06:41:39.555Z,11.60
2019-05-21T06:44:09.548Z,11.50
2019-05-21T06:46:39.668Z,11.40
2019-05-21T06:49:09.677Z,11.40
2019-05-21T06:51:39.705Z,11.30
2019-05-21T06:54:09.921Z,11.40
2019-05-21T06:56:39.815Z,11.40
2019-05-21T06:59:09.910Z,11.40
2019-05-21T07:01:39.848Z,11.40
2019-05-21T07:04:09.921Z,11.20
2019-05-21T07:06:39.868Z,11.20
2019-05-21T07:09:09.967Z,11.20
2019-05-21T07:11:39.892Z,11.30
2019-05-21T07:14:09.978Z,11.20
2019-05-21T07:16:39.905Z,11.20
2019-05-21T07:19:10.194Z,11.20
2019-05-21T07:21:40.275Z,11.20
2019-05-21T07:24:10.403Z,11.30
2019-05-21T07:26:40.549Z,11.20
2019-05-21T07:29:10.680Z,11.20
2019-05-21T07:31:40.765Z,11.10
2019-05-21T07:34:10.744Z,11.20
2019-05-21T07:36:40.772Z,11.20
2019-05-21T07:39:11.103Z,11.30
2019-05-21T07:41:41.274Z,11.20
2019-05-21T07:44:11.425Z,11.20
2019-05-21T07:46:41.390Z,11.20
2019-05-21T07:49:11.411Z,11.20
2019-05-21T07:51:41.454Z,11.20
2019-05-21T07:54:11.432Z,11.20
2019-05-21T07:56:41.405Z,11.20
2019-05-21T07:59:11.504Z,11.20
2019-05-21T08:01:41.570Z,11.20
2019-05-21T08:04:11.598Z,11.30
2019-05-21T08:06:41.736Z,11.30
2019-05-21T08:09:14.478Z,11.30
2019-05-21T08:11:46.626Z,11.40
2019-05-21T08:14:15.574Z,11.30
2019-05-21T08:16:45.768Z,11.30
2019-05-21T08:19:15.744Z,11.30
2019-05-21T08:21:45.762Z,11.20
2019-05-21T08:24:15.756Z,11.20
2019-05-21T08:26:45.773Z,11.20
2019-05-21T08:29:15.875Z,11.30
2019-05-21T08:31:45.933Z,11.30
2019-05-21T08:34:16.075Z,11.30
2019-05-21T08:36:45.989Z,11.30
2019-05-21T08:39:28.214Z,11.30
2019-05-21T08:41:47.798Z,11.20
2019-05-21T08:44:17.814Z,11.20
2019-05-21T08:46:47.802Z,11.20
2019-05-21T08:49:17.966Z,11.30
2019-05-21T08:51:47.904Z,11.20
2019-05-21T08:54:36.982Z,11.10
2019-05-21T08:57:06.964Z,11.10
2019-05-21T08:59:37.038Z,11.00
2019-05-21T09:02:07.308Z,11.10
2019-05-21T09:07:10.794Z,11.30
2019-05-21T09:07:15.047Z,11.20
2019-05-21T09:09:49.867Z,11.50
2019-05-21T09:12:12.976Z,11.50
2019-05-21T09:14:42.886Z,11.40
2019-05-21T09:17:12.915Z,11.40
2019-05-21T09:19:42.904Z,11.50
2019-05-21T09:22:12.977Z,11.40
2019-05-21T09:24:42.979Z,11.40
2019-05-21T09:27:13.101Z,11.50
2019-05-21T09:29:43.274Z,11.40
2019-05-21T09:32:13.350Z,11.50
2019-05-21T09:34:48.925Z,11.40
2019-05-21T09:37:19.821Z,11.60
2019-05-21T09:39:47.138Z,11.70
2019-05-21T09:42:17.131Z,11.80
2019-05-21T09:44:47.285Z,11.90
2019-05-21T09:47:17.406Z,11.70
2019-05-21T09:49:47.348Z,11.80
2019-05-21T09:52:17.342Z,11.90
2019-05-21T09:54:47.317Z,11.90
2019-05-21T09:57:22.367Z,12.10
2019-05-21T10:00:07.610Z,12.10
2019-05-21T10:02:37.753Z,12.00
2019-05-21T10:05:08.003Z,12.30
2019-05-21T10:07:40.560Z,12.30
2019-05-21T10:10:10.264Z,12.40
2019-05-21T10:12:40.224Z,12.30
2019-05-21T10:15:10.695Z,12.30
2019-05-21T10:17:40.804Z,12.30
2019-05-21T10:20:11.077Z,12.40
2019-05-21T10:22:41.079Z,12.20
2019-05-21T10:25:11.655Z,12.20
2019-05-21T10:27:41.981Z,12.20
2019-05-21T10:30:12.939Z,12.20
2019-05-21T10:32:42.923Z,12.40
2019-05-21T10:35:13.585Z,12.50
2019-05-21T10:37:54.406Z,12.50
2019-05-21T10:40:15.936Z,12.60
2019-05-21T10:42:45.925Z,12.40
2019-05-21T10:45:16.406Z,12.50
2019-05-21T10:47:46.482Z,12.50
2019-05-21T10:50:16.885Z,12.70
2019-05-21T10:52:47.013Z,12.80
2019-05-21T10:55:17.733Z,12.90
2019-05-21T10:57:47.867Z,12.90
2019-05-21T11:00:22.898Z,13.10
2019-05-21T11:03:04.061Z,13.00
2019-05-21T11:05:36.366Z,12.90
2019-05-21T11:08:24.755Z,12.80
2019-05-21T11:10:39.536Z,12.90
2019-05-21T11:13:09.707Z,12.90
2019-05-21T11:15:39.793Z,12.80
2019-05-21T11:18:11.692Z,12.80
2019-05-21T11:20:42.072Z,13.00
2019-05-21T11:23:12.231Z,13.10
2019-05-21T11:25:42.466Z,13.00
2019-05-21T11:28:12.458Z,13.10
2019-05-21T11:30:42.664Z,13.20
2019-05-21T11:33:12.814Z,13.10
2019-05-21T11:35:43.178Z,13.10
2019-05-21T11:38:13.264Z,12.90
2019-05-21T11:40:43.289Z,12.80
2019-05-21T11:43:13.420Z,12.90
2019-05-21T11:45:43.559Z,12.90
2019-05-21T11:48:13.751Z,12.80
2019-05-21T11:50:43.894Z,12.80
2019-05-21T11:53:13.902Z,12.90
2019-05-21T11:55:43.820Z,13.00
2019-05-21T11:58:14.340Z,12.90
2019-05-21T12:00:44.446Z,12.80
2019-05-21T12:03:14.525Z,12.90
2019-05-21T12:05:44.528Z,12.90
2019-05-21T12:08:14.536Z,12.80
2019-05-21T12:10:44.619Z,12.80
2019-05-21T12:13:14.627Z,13.00
2019-05-21T12:15:44.735Z,13.00
2019-05-21T12:18:14.726Z,12.90
2019-05-21T12:20:44.864Z,12.90
2019-05-21T12:23:14.941Z,12.90
2019-05-21T12:25:44.940Z,12.80
2019-05-21T12:28:14.892Z,12.80
2019-05-21T12:30:45.037Z,12.70
2019-05-21T12:33:15.044Z,12.80
2019-05-21T12:35:45.081Z,12.80
2019-05-21T12:38:15.084Z,12.90
2019-05-21T12:40:45.177Z,12.90
2019-05-21T12:43:15.291Z,12.90
2019-05-21T12:45:45.476Z,13.00
2019-05-21T12:48:15.372Z,13.10
2019-05-21T12:50:45.393Z,13.00
2019-05-21T12:53:16.816Z,12.80
2019-05-21T12:55:46.749Z,12.80
2019-05-21T12:58:16.854Z,12.60
2019-05-21T13:00:46.979Z,12.80
2019-05-21T13:03:16.969Z,12.70
2019-05-21T13:05:46.970Z,12.90
2019-05-21T13:08:17.017Z,12.90
2019-05-21T13:10:47.387Z,12.70
2019-05-21T13:13:17.546Z,12.80
2019-05-21T13:15:47.604Z,13.00
2019-05-21T13:18:17.695Z,12.90
2019-05-21T13:20:47.830Z,12.80
2019-05-21T13:23:18.074Z,13.00
2019-05-21T13:25:48.170Z,12.90
2019-05-21T13:28:18.149Z,12.90
2019-05-21T13:30:48.237Z,12.90
2019-05-21T13:33:19.582Z,12.60
2019-05-21T13:35:49.713Z,12.50
2019-05-21T13:38:19.858Z,12.40
2019-05-21T13:40:51.814Z,12.40
2019-05-21T13:43:21.825Z,12.50
2019-05-21T13:45:52.020Z,12.50
2019-05-21T13:48:22.162Z,12.30
2019-05-21T13:50:52.248Z,12.30
2019-05-21T13:53:22.277Z,12.30
2019-05-21T13:55:52.596Z,12.30
2019-05-21T13:58:22.619Z,12.20
2019-05-21T14:00:56.271Z,12.10
2019-05-21T14:03:26.354Z,12.00
2019-05-21T14:05:56.733Z,12.10
2019-05-21T14:08:26.889Z,12.30
2019-05-21T14:10:57.016Z,12.20
2019-05-21T14:13:27.199Z,12.30
2019-05-21T14:15:57.207Z,12.30
2019-05-21T14:18:27.138Z,12.20
2019-05-21T14:20:57.220Z,12.00
2019-05-21T14:23:27.205Z,12.00
2019-05-21T14:25:57.284Z,11.80
2019-05-21T14:28:27.351Z,11.90
2019-05-21T14:30:57.428Z,11.90
2019-05-21T14:33:27.477Z,11.80
2019-05-21T14:35:57.553Z,11.90
2019-05-21T14:38:27.551Z,11.90
2019-05-21T14:40:57.717Z,11.90
2019-05-21T14:43:27.844Z,12.00
2019-05-21T14:45:57.830Z,11.90
2019-05-21T14:48:27.988Z,11.90
2019-05-21T14:50:58.005Z,12.00
2019-05-21T14:53:28.040Z,12.00
2019-05-21T14:55:58.030Z,11.90
2019-05-21T14:58:27.965Z,11.80
2019-05-21T15:00:58.056Z,11.80
2019-05-21T15:03:29.634Z,11.70
2019-05-21T15:05:59.766Z,11.70
2019-05-21T15:08:29.785Z,11.60
2019-05-21T15:10:59.700Z,11.70
2019-05-21T15:13:29.813Z,11.60
2019-05-21T15:15:59.961Z,11.90
2019-05-21T15:18:30.016Z,11.90
2019-05-21T15:21:08.093Z,11.90
2019-05-21T15:23:38.634Z,11.80
2019-05-21T15:26:09.033Z,11.80
2019-05-21T15:28:39.019Z,11.70
2019-05-21T15:31:08.956Z,11.70
2019-05-21T15:33:38.893Z,11.70
2019-05-21T15:36:08.983Z,11.70
2019-05-21T15:38:50.239Z,11.80
2019-05-21T15:41:12.666Z,11.70
2019-05-21T15:43:42.716Z,11.70
2019-05-21T15:46:12.869Z,11.70
2019-05-21T15:48:43.409Z,11.70
2019-05-21T15:51:13.484Z,11.80
2019-05-21T15:53:43.568Z,11.60
2019-05-21T15:56:13.689Z,11.60
2019-05-21T15:58:43.796Z,11.60
2019-05-21T16:01:13.852Z,11.60
2019-05-21T16:03:43.952Z,11.60
2019-05-21T16:06:14.033Z,11.60
2019-05-21T16:08:44.133Z,11.60
2019-05-21T16:11:28.214Z,11.60
2019-05-21T16:13:45.782Z,11.60
2019-05-21T16:16:15.735Z,11.50
2019-05-21T16:18:45.803Z,11.50
2019-05-21T16:21:15.875Z,11.40
2019-05-21T16:23:45.897Z,11.40
2019-05-21T16:26:15.899Z,11.50
2019-05-21T16:28:45.871Z,11.40
2019-05-21T16:31:15.880Z,11.30
2019-05-21T16:33:45.825Z,11.30
2019-05-21T16:36:15.918Z,11.40
2019-05-21T16:38:46.015Z,11.40
2019-05-21T16:41:16.235Z,11.40
2019-05-21T16:43:46.266Z,11.40
2019-05-21T16:46:16.463Z,11.40
2019-05-21T16:48:46.493Z,11.50
2019-05-21T16:51:16.463Z,11.40
2019-05-21T16:53:46.459Z,11.50
2019-05-21T16:56:35.754Z,11.50
2019-05-21T16:59:06.174Z,11.50
2019-05-21T17:01:37.504Z,11.40
2019-05-21T17:04:08.333Z,11.50
2019-05-21T17:06:38.496Z,11.50
2019-05-21T17:09:13.231Z,11.40
2019-05-21T17:11:43.372Z,11.40
2019-05-21T17:14:13.524Z,11.50
2019-05-21T17:16:43.565Z,11.50
2019-05-21T17:19:13.654Z,11.40
2019-05-21T17:21:43.800Z,11.50
2019-05-21T17:24:13.926Z,11.50
2019-05-21T17:26:44.085Z,11.50
2019-05-21T17:29:14.222Z,11.60
2019-05-21T17:31:44.327Z,11.60
2019-05-21T17:34:14.500Z,11.60
2019-05-21T17:36:44.510Z,11.50
2019-05-21T17:39:14.658Z,11.50
2019-05-21T17:41:44.666Z,11.50
2019-05-21T17:44:14.586Z,11.50
2019-05-21T17:46:44.686Z,11.50
2019-05-21T17:49:14.755Z,11.50
2019-05-21T17:51:44.782Z,11.60
2019-05-21T17:54:15.133Z,11.60
2019-05-21T17:56:45.125Z,11.50
2019-05-21T17:59:15.201Z,11.50
2019-05-21T18:01:45.576Z,11.60
2019-05-21T18:04:16.069Z,11.60
2019-05-21T18:06:46.957Z,11.50
2019-05-21T18:09:19.185Z,11.50
2019-05-21T18:11:49.532Z,11.50
2019-05-21T18:14:19.997Z,11.50
2019-05-21T18:16:50.376Z,11.50
2019-05-21T18:19:20.707Z,11.50
2019-05-21T18:21:51.174Z,11.60
2019-05-21T18:24:21.335Z,11.50
2019-05-21T18:26:51.712Z,11.50
2019-05-21T18:29:21.815Z,11.50
2019-05-21T18:31:51.878Z,11.50
2019-05-21T18:34:22.156Z,11.60
2019-05-21T18:36:52.203Z,11.50
2019-05-21T18:39:22.341Z,11.50
2019-05-21T18:41:52.798Z,11.50
2019-05-21T18:44:22.813Z,11.50
2019-05-21T18:46:52.878Z,11.50
2019-05-21T18:49:22.881Z,11.50
2019-05-21T18:51:53.117Z,11.60
2019-05-21T18:54:23.201Z,11.60
2019-05-21T18:56:53.496Z,11.50
2019-05-21T18:59:23.863Z,11.60
2019-05-21T19:01:53.939Z,11.60
2019-05-21T19:04:24.304Z,11.50
2019-05-21T19:06:54.305Z,11.40
2019-05-21T19:09:24.300Z,11.50
2019-05-21T19:11:54.527Z,11.50
2019-05-21T19:14:24.595Z,11.50
2019-05-21T19:16:54.578Z,11.50
2019-05-21T19:19:24.648Z,11.50
2019-05-21T19:21:54.629Z,11.50
2019-05-21T19:24:24.557Z,11.50
2019-05-21T19:26:54.562Z,11.40
2019-05-21T19:29:24.623Z,11.50
2019-05-21T19:31:54.601Z,11.50
2019-05-21T19:34:24.680Z,11.50
2019-05-21T19:36:54.754Z,11.40
2019-05-21T19:39:24.843Z,11.50
2019-05-21T19:41:54.852Z,11.40
2019-05-21T19:44:24.835Z,11.40
2019-05-21T19:46:54.924Z,11.50
2019-05-21T19:49:25.088Z,11.50
2019-05-21T19:51:55.079Z,11.50
2019-05-21T19:54:25.069Z,11.50
2019-05-21T19:56:55.056Z,11.50
2019-05-21T19:59:25.225Z,11.50
2019-05-21T20:01:55.944Z,11.40
2019-05-21T20:04:27.277Z,11.40
2019-05-21T20:06:57.294Z,11.50
2019-05-21T20:09:29.616Z,11.50
2019-05-21T20:11:59.556Z,11.60
2019-05-21T20:14:30.392Z,11.50
2019-05-21T20:17:01.019Z,11.50
2019-05-21T20:19:32.034Z,11.50
2019-05-21T20:22:02.142Z,11.50
2019-05-21T20:24:32.074Z,11.40
2019-05-21T20:27:02.629Z,11.50
2019-05-21T20:29:33.336Z,11.50
2019-05-21T20:32:05.173Z,11.50
2019-05-21T20:34:35.343Z,11.50
2019-05-21T20:37:07.493Z,11.50
2019-05-21T20:39:38.809Z,11.40
2019-05-21T20:42:12.428Z,11.50
2019-05-21T20:44:42.587Z,11.50
2019-05-21T20:47:15.774Z,11.40
2019-05-21T20:49:47.119Z,11.40
2019-05-21T20:52:19.218Z,11.40
2019-05-21T20:54:52.626Z,11.40
2019-05-21T20:57:22.706Z,11.40
2019-05-21T20:59:52.964Z,11.40
2019-05-21T21:02:24.014Z,11.40
2019-05-21T21:04:54.950Z,11.40
2019-05-21T21:07:25.139Z,11.50
2019-05-21T21:09:55.575Z,11.50
2019-05-21T21:12:25.829Z,11.50
2019-05-21T21:14:55.942Z,11.70
2019-05-21T21:17:26.428Z,11.60
2019-05-21T21:19:56.689Z,11.70
2019-05-21T21:22:26.707Z,11.70
2019-05-21T21:24:57.445Z,11.80
2019-05-21T21:27:28.089Z,11.70
2019-05-21T21:29:58.199Z,11.80
2019-05-21T21:32:28.717Z,11.70
2019-05-21T21:34:58.781Z,11.50
2019-05-21T21:37:28.728Z,11.50
2019-05-21T21:39:58.818Z,11.50
2019-05-21T21:42:28.741Z,11.40
2019-05-21T21:44:58.738Z,11.40
2019-05-21T21:47:29.373Z,11.40
2019-05-21T21:50:00.927Z,11.50
2019-05-21T21:52:31.930Z,11.50
2019-05-21T21:55:03.854Z,11.50
2019-05-21T21:57:34.173Z,11.40
2019-05-21T22:00:12.699Z,11.40
2019-05-21T22:02:42.699Z,11.40
2019-05-21T22:05:13.996Z,11.50
2019-05-21T22:07:44.549Z,11.40
2019-05-21T22:10:15.476Z,11.40
2019-05-21T22:12:45.547Z,11.40
2019-05-21T22:15:16.183Z,11.40
2019-05-21T22:17:47.042Z,11.40
2019-05-21T22:20:17.033Z,11.30
2019-05-21T22:22:47.455Z,11.40
2019-05-21T22:25:17.509Z,11.30
2019-05-21T22:27:47.610Z,11.30
2019-05-21T22:30:19.126Z,11.30
2019-05-21T22:32:49.119Z,11.30
2019-05-21T22:35:19.520Z,11.40
2019-05-21T22:37:49.659Z,11.30
2019-05-21T22:40:19.986Z,11.30
2019-05-21T22:42:50.258Z,11.30
2019-05-21T22:45:20.238Z,11.30
2019-05-21T22:47:50.434Z,11.30
2019-05-21T22:50:20.613Z,11.30
2019-05-21T22:52:50.691Z,11.30
2019-05-21T22:55:20.771Z,11.30
2019-05-21T22:57:50.839Z,11.40
2019-05-21T23:00:21.228Z,11.40
2019-05-21T23:02:51.287Z,11.40
2019-05-21T23:05:23.154Z,11.40
2019-05-21T23:07:53.067Z,11.40
2019-05-21T23:10:23.828Z,11.40
2019-05-21T23:12:53.826Z,11.40
2019-05-21T23:15:25.541Z,11.40
2019-05-21T23:17:56.323Z,11.30
2019-05-21T23:20:27.802Z,11.40
2019-05-21T23:22:57.806Z,11.30
2019-05-21T23:25:28.400Z,11.30
2019-05-21T23:27:59.077Z,11.30
2019-05-21T23:30:29.869Z,11.30
2019-05-21T23:32:59.881Z,11.30
2019-05-21T23:35:30.091Z,11.30
2019-05-21T23:38:02.330Z,11.30
2019-05-21T23:40:32.586Z,11.30
2019-05-21T23:43:02.571Z,11.20
2019-05-21T23:45:33.063Z,11.20
2019-05-21T23:48:04.889Z,11.20
2019-05-21T23:50:35.156Z,11.20
2019-05-21T23:53:07.393Z,11.20
2019-05-21T23:55:38.514Z,11.10
2019-05-21T23:58:09.994Z,11.10
